Airfield :
LOGIN :

Register | Disclaimer

   EN    FR    IT 

 










Legend :    VFR   Marginal VFR   IFR   Intensive IFR   Very Intensive IFR
Visi :
Ceiling :
>= 8 km
>= 3000ft
5 to 8 km
1000 to 3000 ft
1500m to 5 km
500 to 1000 ft
800 to 1500m
200 to 500 ft
< 800m
< 200 ft
Symbols :   Thunderstorms  Fog  Heavy snow  Heavy precipitations  Wind > 20 kt
SIGMETs :     Misc.  Thunderstorms  Icing  Turbulence  Mountain Waves  Volcanic Ashes






- Airport Elevation : 1895 ft


LSMM - Meiringen

CURRENT METAR :
  • 241220Z AUTO VRB03KT 9999NDV NCD 09/M01 Q1004 RMK

EXPIRED METARs :
  • 241150Z AUTO 02006G16KT 320V080 9999NDV NCD 08/M00 Q1004 RMK
  • 241120Z AUTO 05012KT 360V100 9999NDV NCD 08/M01 Q1003 RMK
  • 241050Z AUTO VRB04G14KT 9999NDV NCD 08/M01 Q1003 RMK
  • 241020Z AUTO 26005KT 210V300 9999NDV NCD 06/M01 Q1003 RMK
  • 240950Z AUTO VRB06KT 9999NDV NCD 06/M00 Q1003 RMK
  • 240920Z AUTO 09006KT 9999NDV NCD 05/M01 Q1003 RMK
  • 240850Z AUTO 10006KT 070V140 9999NDV NCD 04/M01 Q1003 RMK

Expired Forecast.



MET'MAP, your aeronautical weather chart ! - Copyright ORBIFLY December 2007 - Disclaimer

ORBIFLY MET'MAP TEAM :

Programming & Development : Alexandra Zaïnal
Original concept : Baudouin d'Aumeries
Technical & hardware support : Manuel Goepfert
Assistance : Marc-Olivier Méhu




SOURCES & CREDITS :

   NOAA